Time;durP1;ratioP1;P1;durP2;ratioP2;P2;SDS_P1;SDS_P2;PMS_P1;PMS_P2;Temp;Humidity;BMP_temperature;BMP_pressure;BME280_temperature;BME280_humidity;BME280_pressure;Samples;Min_cycle;Max_cycle;Signal;HPM_P1;HPM_P2
2022/07/20 00:00:38;;;;;;;3.80;3.50;;;26.30;31.90;;;;;;4987755;28;20430;-74
2022/07/20 00:03:05;;;;;;;3.58;3.28;;;26.30;33.40;;;;;;4988417;28;20426;-74
2022/07/20 00:05:32;;;;;;;3.67;3.38;;;26.30;34.00;;;;;;4988181;28;20501;-75
2022/07/20 00:07:59;;;;;;;3.50;3.20;;;26.30;33.20;;;;;;4988219;28;20426;-74
2022/07/20 00:13:13;;;;;;;3.95;3.03;;;26.30;32.10;;;;;;4988601;28;20410;-73
2022/07/20 00:15:40;;;;;;;3.42;3.13;;;26.30;33.20;;;;;;4987940;28;20418;-74
2022/07/20 00:18:07;;;;;;;3.70;3.40;;;26.20;34.10;;;;;;4988384;28;20445;-74
2022/07/20 00:20:35;;;;;;;4.53;3.10;;;26.20;33.70;;;;;;4987541;28;20445;-74
2022/07/20 00:23:02;;;;;;;4.15;3.08;;;26.20;34.50;;;;;;4988521;28;20814;-74
2022/07/20 00:25:29;;;;;;;4.32;3.17;;;26.10;33.80;;;;;;4987308;28;20426;-74
2022/07/20 00:27:56;;;;;;;4.60;3.50;;;26.10;34.40;;;;;;4988330;28;20416;-74
2022/07/20 00:30:24;;;;;;;4.43;3.20;;;26.10;35.10;;;;;;4988052;28;20532;-74
2022/07/20 00:32:51;;;;;;;3.80;3.17;;;26.00;34.50;;;;;;4988345;28;20457;-74
2022/07/20 00:35:18;;;;;;;3.53;3.00;;;26.00;35.20;;;;;;4987890;28;20872;-73
2022/07/20 00:37:46;;;;;;;3.63;3.22;;;26.00;35.10;;;;;;4988463;28;20422;-73
2022/07/20 00:40:14;;;;;;;3.33;3.03;;;26.00;35.00;;;;;;4987344;28;20517;-74
2022/07/20 00:42:41;;;;;;;3.40;3.10;;;25.90;34.70;;;;;;4988152;28;20438;-74
2022/07/20 00:45:10;;;;;;;4.20;3.05;;;25.90;35.50;;;;;;4987949;28;20429;-73
2022/07/20 00:47:38;;;;;;;4.25;3.40;;;25.80;35.20;;;;;;4991160;28;20441;-74
2022/07/20 00:50:06;;;;;;;4.20;3.05;;;25.80;35.40;;;;;;4991109;28;20437;-74
2022/07/20 00:52:33;;;;;;;5.00;3.60;;;25.70;35.60;;;;;;4991669;28;20419;-73
2022/07/20 00:55:01;;;;;;;3.92;3.20;;;25.70;36.40;;;;;;4991045;28;20419;-74
2022/07/20 00:57:28;;;;;;;3.50;3.20;;;25.70;35.60;;;;;;4991409;28;20861;-74
2022/07/20 00:59:54;;;;;;;4.00;2.83;;;25.60;35.50;;;;;;4991252;28;20425;-75
2022/07/20 01:02:21;;;;;;;3.50;3.20;;;25.60;35.80;;;;;;4991498;28;20519;-74
2022/07/20 01:04:49;;;;;;;3.63;3.33;;;25.50;36.00;;;;;;4991501;28;20428;-73
2022/07/20 01:07:17;;;;;;;3.20;3.00;;;25.50;36.20;;;;;;4991390;28;20437;-73
2022/07/20 01:09:45;;;;;;;3.47;3.10;;;25.40;36.50;;;;;;5017738;23;20452;-77
2022/07/20 01:12:12;;;;;;;4.75;3.20;;;25.40;36.50;;;;;;5020061;28;20512;-76
2022/07/20 01:14:40;;;;;;;4.30;3.10;;;25.40;35.70;;;;;;5029215;28;20501;-75
2022/07/20 01:17:07;;;;;;;3.80;3.30;;;25.30;36.50;;;;;;5029313;28;20517;-75
2022/07/20 01:19:33;;;;;;;4.80;3.10;;;25.30;36.60;;;;;;5029283;28;20423;-78
2022/07/20 01:22:02;;;;;;;5.72;3.40;;;25.30;35.70;;;;;;4993660;28;20849;-76
2022/07/20 01:24:29;;;;;;;3.30;3.10;;;25.30;35.40;;;;;;4990034;28;20478;-77
2022/07/20 01:26:56;;;;;;;4.82;3.03;;;25.30;35.80;;;;;;4989571;28;20418;-78
2022/07/20 01:29:23;;;;;;;3.97;3.60;;;25.30;35.50;;;;;;4990097;28;21007;-78
2022/07/20 01:31:49;;;;;;;3.55;3.25;;;25.20;36.20;;;;;;4989397;28;20448;-78
2022/07/20 01:34:18;;;;;;;3.80;3.20;;;25.30;35.50;;;;;;4989832;28;20414;-78
2022/07/20 01:36:45;;;;;;;3.87;3.00;;;25.20;36.30;;;;;;4989688;28;20508;-77
2022/07/20 01:39:14;;;;;;;3.53;3.20;;;25.20;37.10;;;;;;4989362;28;20430;-78
2022/07/20 01:41:41;;;;;;;5.27;3.60;;;25.10;37.00;;;;;;4988793;28;20530;-78
2022/07/20 01:44:07;;;;;;;4.97;3.60;;;25.10;37.20;;;;;;4989645;28;20437;-76
2022/07/20 01:46:34;;;;;;;3.30;2.92;;;25.10;37.40;;;;;;4989903;28;20422;-79
2022/07/20 01:49:01;;;;;;;3.58;3.28;;;25.10;37.30;;;;;;4989714;28;20530;-77
2022/07/20 01:51:28;;;;;;;3.60;3.30;;;25.00;38.30;;;;;;4989487;28;20424;-77
2022/07/20 01:53:54;;;;;;;4.18;3.33;;;25.00;37.80;;;;;;4989669;28;20879;-78
2022/07/20 01:56:22;;;;;;;3.80;3.40;;;25.00;37.60;;;;;;4989109;28;20419;-77
2022/07/20 01:58:49;;;;;;;3.50;3.20;;;24.90;38.00;;;;;;4990529;28;20509;-78
2022/07/20 02:01:16;;;;;;;3.90;3.53;;;24.90;39.00;;;;;;4989551;28;20733;-78
2022/07/20 02:03:43;;;;;;;5.60;3.50;;;24.90;37.20;;;;;;4989549;28;20418;-77
2022/07/20 02:06:09;;;;;;;6.75;3.90;;;24.90;37.90;;;;;;4990010;28;20432;-77
2022/07/20 02:08:38;;;;;;;3.60;3.30;;;24.90;38.00;;;;;;4989118;28;20781;-78
2022/07/20 02:11:04;;;;;;;3.63;3.30;;;24.90;37.40;;;;;;4988359;28;20422;-78
2022/07/20 02:13:34;;;;;;;3.55;3.15;;;24.90;37.00;;;;;;4989545;28;20417;-77
2022/07/20 02:16:16;;;;;;;3.63;3.33;;;24.90;37.40;;;;;;4989134;28;20426;-78
2022/07/20 02:18:43;;;;;;;3.30;3.10;;;24.90;37.60;;;;;;4989157;28;20426;-78
2022/07/20 02:21:10;;;;;;;4.25;3.28;;;24.90;37.00;;;;;;4988869;28;20613;-78
2022/07/20 02:23:37;;;;;;;4.00;3.60;;;24.80;38.80;;;;;;4988897;28;20426;-77
2022/07/20 02:26:04;;;;;;;4.13;3.47;;;24.80;37.90;;;;;;4988689;28;20478;-77
2022/07/20 02:28:32;;;;;;;4.40;3.42;;;24.70;37.90;;;;;;4988910;28;20428;-78
2022/07/20 02:30:59;;;;;;;4.40;3.40;;;24.70;37.30;;;;;;4988615;28;20436;-78
2022/07/20 02:33:26;;;;;;;4.20;3.60;;;24.60;37.10;;;;;;4988953;28;20418;-77
2022/07/20 02:35:53;;;;;;;3.20;2.95;;;24.60;38.00;;;;;;4988727;28;20422;-78
2022/07/20 02:38:20;;;;;;;3.97;3.35;;;24.60;37.60;;;;;;4990357;28;20430;-77
2022/07/20 02:40:47;;;;;;;4.40;3.30;;;24.60;38.40;;;;;;4988530;28;20861;-77
2022/07/20 02:43:14;;;;;;;3.90;3.50;;;24.60;38.40;;;;;;4989375;28;20433;-77
2022/07/20 02:45:42;;;;;;;4.20;3.60;;;24.60;39.30;;;;;;4988812;28;20441;-77
2022/07/20 02:48:09;;;;;;;4.27;3.50;;;24.50;39.80;;;;;;4988755;28;20431;-78
2022/07/20 02:50:38;;;;;;;3.95;3.65;;;24.50;39.40;;;;;;4988280;28;20498;-77
2022/07/20 02:53:05;;;;;;;3.40;3.10;;;24.40;39.20;;;;;;4988912;28;20410;-77
2022/07/20 02:55:32;;;;;;;4.80;3.60;;;24.40;39.10;;;;;;4987736;28;20509;-77
2022/07/20 02:57:59;;;;;;;5.80;3.20;;;24.40;39.40;;;;;;4988498;28;20444;-77
2022/07/20 03:00:26;;;;;;;5.13;3.90;;;24.30;39.50;;;;;;4988137;28;20414;-77
2022/07/20 03:02:54;;;;;;;3.60;3.30;;;24.40;39.60;;;;;;4988146;28;20441;-76
2022/07/20 03:05:21;;;;;;;4.63;3.00;;;24.40;38.90;;;;;;4988334;28;20803;-76
2022/07/20 03:07:48;;;;;;;3.67;3.38;;;24.40;37.80;;;;;;4988477;28;20421;-77
2022/07/20 03:10:16;;;;;;;6.65;3.50;;;24.40;37.60;;;;;;4986578;28;20430;-77
2022/07/20 03:12:42;;;;;;;4.10;3.70;;;24.40;37.10;;;;;;4987980;28;20867;-77
2022/07/20 03:15:12;;;;;;;4.00;3.60;;;24.40;37.80;;;;;;4987736;28;20424;-78
2022/07/20 03:17:44;;;;;;;3.67;3.30;;;24.40;37.40;;;;;;4987894;28;20441;-77
2022/07/20 03:20:14;;;;;;;3.90;3.50;;;24.40;37.60;;;;;;4987060;28;20410;-78
2022/07/20 03:22:41;;;;;;;4.00;3.50;;;24.40;38.10;;;;;;4987796;28;20430;-77
2022/07/20 03:25:09;;;;;;;4.50;3.75;;;24.40;37.70;;;;;;4987251;28;20430;-77
2022/07/20 03:27:36;;;;;;;4.20;3.80;;;24.30;37.90;;;;;;4987710;28;20872;-77
2022/07/20 03:30:03;;;;;;;3.60;3.30;;;24.30;38.40;;;;;;4987152;28;20414;-78
2022/07/20 03:32:30;;;;;;;3.58;3.28;;;24.30;37.70;;;;;;4987501;28;20444;-78
2022/07/20 03:34:57;;;;;;;5.97;3.10;;;24.30;38.90;;;;;;4986962;28;20418;-78
2022/07/20 03:37:25;;;;;;;3.78;3.40;;;24.30;39.10;;;;;;4987563;28;20424;-78
2022/07/20 03:39:52;;;;;;;3.93;3.40;;;24.30;39.10;;;;;;4986560;28;20911;-78
2022/07/20 03:42:19;;;;;;;4.50;4.10;;;24.30;37.30;;;;;;4987381;28;20441;-78
2022/07/20 03:44:46;;;;;;;5.80;4.00;;;24.20;37.70;;;;;;4987433;28;20418;-77
2022/07/20 03:47:13;;;;;;;8.70;4.00;;;24.10;37.90;;;;;;4987256;28;20436;-79
2022/07/20 03:49:39;;;;;;;4.45;3.70;;;24.00;38.40;;;;;;4987185;28;20422;-77
2022/07/20 03:52:06;;;;;;;7.35;4.05;;;24.00;38.20;;;;;;4986973;28;20425;-77
2022/07/20 03:54:34;;;;;;;5.63;3.50;;;24.10;38.70;;;;;;4987541;28;20426;-78
2022/07/20 03:57:01;;;;;;;5.30;3.90;;;24.10;39.00;;;;;;4987246;28;20517;-78
2022/07/20 03:59:28;;;;;;;4.40;3.80;;;24.20;38.90;;;;;;4987854;28;20429;-78
2022/07/20 04:01:55;;;;;;;4.30;3.60;;;24.20;38.80;;;;;;4987128;28;20464;-78
2022/07/20 04:04:21;;;;;;;3.40;3.10;;;24.20;38.80;;;;;;4987490;28;20422;-77
2022/07/20 04:06:48;;;;;;;5.17;3.60;;;24.20;37.60;;;;;;4987547;28;20426;-77
2022/07/20 04:09:43;;;;;;;4.90;3.72;;;24.20;38.20;;;;;;4987280;28;20422;-78
2022/07/20 04:12:03;;;;;;;4.90;3.80;;;24.20;37.60;;;;;;4986672;28;20868;-78
2022/07/20 04:14:30;;;;;;;5.60;4.90;;;24.20;37.40;;;;;;4987483;28;20453;-78
2022/07/20 04:16:57;;;;;;;4.95;4.07;;;24.20;37.60;;;;;;4987344;28;20426;-77
2022/07/20 04:19:23;;;;;;;4.70;4.20;;;24.20;37.70;;;;;;4987025;28;20434;-77
2022/07/20 04:21:52;;;;;;;4.88;3.92;;;24.30;37.70;;;;;;4988726;28;20455;-78
2022/07/20 04:24:19;;;;;;;6.43;3.92;;;24.20;38.70;;;;;;4991544;28;20434;-78
2022/07/20 04:26:46;;;;;;;5.20;3.90;;;24.20;38.30;;;;;;4990626;28;20899;-79
2022/07/20 04:29:14;;;;;;;3.85;3.45;;;24.10;39.20;;;;;;4991488;28;20450;-78
2022/07/20 04:31:41;;;;;;;4.90;4.00;;;24.20;38.90;;;;;;4991126;28;20419;-78
2022/07/20 04:34:07;;;;;;;4.40;3.80;;;24.10;39.70;;;;;;4991109;28;20446;-77
2022/07/20 04:36:34;;;;;;;5.80;4.30;;;24.10;40.60;;;;;;4990999;28;20422;-78
2022/07/20 04:39:01;;;;;;;5.22;4.50;;;24.10;39.00;;;;;;4991200;28;20418;-78
2022/07/20 04:41:28;;;;;;;4.40;4.05;;;24.10;41.50;;;;;;4990533;28;20745;-78
2022/07/20 04:43:54;;;;;;;4.70;4.25;;;24.10;39.40;;;;;;4991173;28;20437;-78
2022/07/20 04:46:23;;;;;;;4.90;4.15;;;24.10;39.60;;;;;;4991808;28;20453;-78
2022/07/20 04:48:50;;;;;;;4.45;4.03;;;24.10;39.20;;;;;;4991300;28;20450;-77
2022/07/20 04:51:16;;;;;;;5.13;4.27;;;24.20;39.00;;;;;;4990653;28;20911;-77
2022/07/20 04:53:43;;;;;;;4.95;4.15;;;24.20;39.10;;;;;;4990687;28;20912;-78
2022/07/20 04:56:10;;;;;;;4.93;4.03;;;24.20;38.80;;;;;;4989960;28;20430;-78
2022/07/20 04:58:37;;;;;;;6.32;4.30;;;24.30;39.20;;;;;;4990290;28;20418;-78
2022/07/20 05:01:03;;;;;;;5.57;4.00;;;24.30;40.00;;;;;;4990001;28;20430;-78
2022/07/20 05:03:32;;;;;;;7.68;4.80;;;24.40;39.10;;;;;;4990270;28;20549;-77
2022/07/20 05:05:58;;;;;;;4.80;4.30;;;24.40;38.90;;;;;;4989949;28;20441;-78
2022/07/20 05:08:25;;;;;;;5.85;4.55;;;24.40;38.90;;;;;;4990119;28;20445;-78
2022/07/20 05:10:52;;;;;;;7.85;4.90;;;24.40;39.90;;;;;;4989371;28;20414;-78
2022/07/20 05:13:19;;;;;;;10.43;6.00;;;24.50;39.00;;;;;;4990332;28;20419;-77
2022/07/20 05:15:45;;;;;;;6.82;6.20;;;24.50;39.30;;;;;;4989834;28;20418;-78
2022/07/20 05:18:12;;;;;;;7.72;5.97;;;24.40;39.50;;;;;;4990349;28;20753;-77
2022/07/20 05:20:40;;;;;;;8.82;6.13;;;24.40;39.80;;;;;;4989341;28;20436;-77
2022/07/20 05:23:07;;;;;;;7.30;6.20;;;24.50;40.20;;;;;;4990044;28;20469;-77
2022/07/20 05:25:38;;;;;;;8.97;6.70;;;24.50;40.40;;;;;;4989276;28;20434;-77
2022/07/20 05:28:05;;;;;;;6.93;6.22;;;24.50;40.60;;;;;;4989836;28;20458;-77
2022/07/20 05:30:32;;;;;;;9.23;8.38;;;24.50;41.10;;;;;;4989314;28;20421;-77
2022/07/20 05:32:59;;;;;;;9.43;8.47;;;24.50;41.70;;;;;;4990314;28;20421;-76
2022/07/20 05:35:26;;;;;;;11.57;8.73;;;24.50;42.70;;;;;;4989746;28;20418;-78
2022/07/20 05:37:54;;;;;;;11.75;9.30;;;24.60;42.80;;;;;;4990165;28;20418;-77
2022/07/20 05:40:20;;;;;;;10.68;9.68;;;24.60;42.90;;;;;;4988977;28;20414;-77
2022/07/20 05:42:47;;;;;;;10.82;9.73;;;24.60;43.30;;;;;;4989799;28;20434;-78
2022/07/20 05:45:14;;;;;;;10.98;9.98;;;24.60;43.40;;;;;;4989539;28;20446;-78
2022/07/20 05:47:41;;;;;;;11.55;10.23;;;24.60;43.70;;;;;;4989686;28;20422;-78
2022/07/20 05:50:08;;;;;;;12.32;11.20;;;24.60;44.10;;;;;;4988932;28;20429;-78
2022/07/20 05:52:35;;;;;;;12.25;11.15;;;24.60;44.50;;;;;;4989050;28;20422;-78
2022/07/20 05:55:04;;;;;;;13.10;11.70;;;24.70;44.90;;;;;;4989097;28;20455;-77
2022/07/20 05:57:31;;;;;;;15.68;14.07;;;24.70;45.60;;;;;;4989631;28;20422;-78
2022/07/20 05:59:57;;;;;;;13.80;12.38;;;24.70;45.90;;;;;;4988990;28;20632;-78
2022/07/20 06:02:24;;;;;;;14.23;13.00;;;24.70;46.10;;;;;;5008243;28;20437;-78
2022/07/20 06:04:51;;;;;;;14.63;13.30;;;24.70;46.40;;;;;;5008529;28;20559;-77
2022/07/20 06:07:18;;;;;;;14.52;13.32;;;24.70;46.50;;;;;;5008775;28;20424;-78
2022/07/20 06:09:45;;;;;;;15.10;13.80;;;24.70;47.00;;;;;;5008328;28;20425;-78
2022/07/20 06:12:13;;;;;;;16.30;14.73;;;24.80;46.90;;;;;;5008358;28;20421;-77
2022/07/20 06:14:40;;;;;;;16.90;15.30;;;24.80;47.30;;;;;;5008415;28;20471;-78
2022/07/20 06:17:07;;;;;;;16.60;15.20;;;24.80;47.50;;;;;;5008377;28;20439;-78
2022/07/20 06:19:34;;;;;;;16.40;14.98;;;24.80;47.50;;;;;;5008550;28;20443;-77
2022/07/20 06:22:00;;;;;;;16.90;15.43;;;24.90;47.80;;;;;;4990368;28;20414;-78
2022/07/20 06:24:27;;;;;;;17.95;16.00;;;25.00;48.70;;;;;;4988625;28;20445;-78
2022/07/20 06:26:54;;;;;;;17.20;15.80;;;25.00;47.70;;;;;;4988192;28;20425;-78
2022/07/20 06:29:22;;;;;;;17.38;15.88;;;25.10;47.70;;;;;;4988361;28;20434;-78
2022/07/20 06:31:50;;;;;;;18.23;16.52;;;25.10;47.80;;;;;;4987827;28;20457;-78
2022/07/20 06:34:17;;;;;;;17.83;16.23;;;25.10;47.70;;;;;;4988443;28;20546;-78
2022/07/20 06:36:46;;;;;;;16.77;15.27;;;25.20;48.00;;;;;;4988029;28;20925;-77
2022/07/20 06:39:13;;;;;;;19.30;17.50;;;25.30;48.40;;;;;;4988438;28;20422;-78
2022/07/20 06:41:39;;;;;;;19.13;17.33;;;25.40;48.00;;;;;;4987758;28;20414;-78
2022/07/20 06:44:06;;;;;;;18.58;16.88;;;25.50;48.00;;;;;;4987663;28;20541;-77
2022/07/20 06:46:34;;;;;;;18.63;17.13;;;25.50;48.20;;;;;;4987926;28;20433;-78
2022/07/20 06:49:01;;;;;;;18.40;16.90;;;25.50;48.20;;;;;;4988307;28;20872;-78
2022/07/20 06:51:28;;;;;;;19.27;17.60;;;25.60;48.20;;;;;;4987964;28;20877;-77
2022/07/20 06:53:54;;;;;;;19.38;17.67;;;25.80;47.30;;;;;;4988304;28;20549;-77
2022/07/20 06:56:21;;;;;;;19.40;17.80;;;25.80;47.40;;;;;;4987824;28;20418;-78
2022/07/20 06:58:48;;;;;;;18.48;16.98;;;25.90;47.70;;;;;;4987999;28;20414;-78
2022/07/20 07:01:15;;;;;;;18.80;17.40;;;25.90;47.50;;;;;;4987675;28;20434;-77
2022/07/20 07:03:43;;;;;;;18.48;16.77;;;26.10;47.00;;;;;;4988063;28;20529;-78
2022/07/20 07:06:09;;;;;;;19.20;17.40;;;26.10;46.80;;;;;;4988002;28;20422;-77
2022/07/20 07:08:36;;;;;;;18.38;16.88;;;26.20;46.80;;;;;;4988019;28;20470;-78
2022/07/20 07:11:03;;;;;;;18.67;17.00;;;26.30;47.00;;;;;;5017687;23;20458;-70
2022/07/20 07:13:30;;;;;;;19.27;17.58;;;26.40;45.90;;;;;;5019631;28;20497;-70
2022/07/20 07:15:56;;;;;;;18.23;16.63;;;26.40;45.90;;;;;;5027589;28;20426;-69
2022/07/20 07:18:23;;;;;;;18.55;16.77;;;26.40;46.30;;;;;;5027413;28;20415;-71
2022/07/20 07:20:51;;;;;;;18.40;16.75;;;26.60;46.10;;;;;;5010805;28;20430;-69
2022/07/20 07:23:18;;;;;;;17.70;16.17;;;26.80;45.40;;;;;;4988575;28;20440;-70
2022/07/20 07:25:45;;;;;;;18.43;16.63;;;26.90;45.10;;;;;;4987132;28;20418;-70
2022/07/20 07:28:12;;;;;;;17.75;16.25;;;27.10;44.70;;;;;;4988320;28;20466;-69
2022/07/20 07:30:38;;;;;;;17.60;16.10;;;27.30;44.10;;;;;;4987982;28;20544;-69
2022/07/20 07:33:05;;;;;;;17.38;16.00;;;27.40;43.90;;;;;;4988528;28;20418;-69
2022/07/20 07:35:32;;;;;;;16.00;14.60;;;27.60;43.50;;;;;;4988030;28;20877;-69
2022/07/20 07:38:00;;;;;;;17.10;15.80;;;27.70;43.20;;;;;;4988509;28;20506;-70
2022/07/20 07:40:28;;;;;;;17.02;15.57;;;27.60;43.00;;;;;;4987448;28;20414;-72
2022/07/20 07:42:55;;;;;;;16.55;15.15;;;27.60;43.30;;;;;;4993712;28;20891;-71
2022/07/20 07:45:22;;;;;;;17.33;15.93;;;27.50;43.00;;;;;;4993146;28;20973;-71
2022/07/20 07:47:50;;;;;;;17.00;15.60;;;27.50;43.60;;;;;;4993488;28;20442;-72
2022/07/20 07:50:17;;;;;;;18.33;16.65;;;27.50;43.70;;;;;;4992372;28;20441;-71
2022/07/20 07:52:47;;;;;;;17.63;16.23;;;27.60;43.80;;;;;;4991114;28;20513;-73
2022/07/20 07:55:15;;;;;;;17.27;15.93;;;27.40;43.50;;;;;;4990695;28;20442;-71
2022/07/20 07:57:42;;;;;;;17.95;16.35;;;27.20;43.60;;;;;;4991712;28;20430;-71
2022/07/20 08:00:10;;;;;;;17.67;15.95;;;27.20;44.00;;;;;;4989404;28;20433;-72
2022/07/20 08:02:36;;;;;;;16.60;15.38;;;27.10;44.30;;;;;;4988145;28;20422;-71
2022/07/20 08:05:04;;;;;;;16.35;15.02;;;27.10;44.80;;;;;;4987946;28;20426;-72
2022/07/20 08:07:33;;;;;;;15.90;14.60;;;27.10;44.60;;;;;;4988284;28;20449;-72
2022/07/20 08:10:00;;;;;;;17.05;15.52;;;27.10;44.80;;;;;;4986382;28;20430;-73
2022/07/20 08:12:28;;;;;;;16.60;15.40;;;27.10;44.50;;;;;;4988438;28;20421;-72
2022/07/20 08:14:55;;;;;;;16.25;15.05;;;27.00;44.30;;;;;;4987683;28;20419;-72
2022/07/20 08:17:21;;;;;;;16.52;15.10;;;27.00;44.90;;;;;;4988445;28;20488;-71
2022/07/20 08:19:49;;;;;;;16.67;15.27;;;27.10;44.80;;;;;;4987863;28;20418;-71
2022/07/20 08:22:15;;;;;;;16.50;15.00;;;27.20;44.50;;;;;;4987754;28;20444;-70
2022/07/20 08:24:42;;;;;;;16.25;14.80;;;27.40;44.30;;;;;;4987712;28;20442;-70
2022/07/20 08:27:09;;;;;;;15.50;14.30;;;27.40;45.10;;;;;;4987331;28;20426;-70
2022/07/20 08:29:37;;;;;;;14.73;13.43;;;27.60;44.30;;;;;;4987887;28;20776;-70
2022/07/20 08:32:05;;;;;;;14.60;13.40;;;27.90;43.70;;;;;;4987695;28;20429;-70
2022/07/20 08:34:32;;;;;;;15.05;13.80;;;28.20;43.60;;;;;;4988205;28;20422;-68
2022/07/20 08:36:59;;;;;;;14.23;12.98;;;28.50;41.60;;;;;;4988003;28;20414;-68
2022/07/20 08:39:26;;;;;;;14.80;13.50;;;28.90;41.10;;;;;;4987970;28;20865;-69
2022/07/20 08:41:54;;;;;;;15.10;13.90;;;29.00;40.70;;;;;;4987093;28;20505;-71
2022/07/20 08:44:21;;;;;;;14.03;12.80;;;29.00;40.00;;;;;;4988045;28;20430;-71
2022/07/20 08:46:49;;;;;;;14.82;13.48;;;29.00;41.30;;;;;;4987665;28;20905;-69
2022/07/20 08:49:16;;;;;;;14.60;13.20;;;29.00;40.20;;;;;;4988164;28;20424;-69
2022/07/20 08:51:43;;;;;;;15.27;13.77;;;28.90;40.60;;;;;;4987278;28;20431;-70
2022/07/20 08:54:11;;;;;;;14.70;13.50;;;28.90;40.90;;;;;;4987811;28;20496;-70
2022/07/20 08:56:37;;;;;;;14.07;12.77;;;28.90;41.20;;;;;;4986824;28;20426;-70
2022/07/20 08:59:04;;;;;;;14.63;13.25;;;28.90;41.30;;;;;;4987786;28;20429;-69
2022/07/20 09:01:31;;;;;;;14.05;12.77;;;29.00;41.60;;;;;;4987650;28;20423;-69
2022/07/20 09:04:10;;;;;;;14.40;13.10;;;29.10;40.60;;;;;;4987506;28;20441;-68
2022/07/20 09:06:47;;;;;;;14.40;13.10;;;29.30;40.20;;;;;;4988133;28;20493;-68
2022/07/20 09:09:13;;;;;;;14.10;13.00;;;29.40;40.50;;;;;;4991514;28;20450;-68
2022/07/20 09:11:40;;;;;;;16.27;14.80;;;29.40;39.70;;;;;;4989933;28;20940;-71
2022/07/20 09:14:07;;;;;;;15.10;13.80;;;29.30;40.50;;;;;;4991607;28;20857;-69
2022/07/20 09:16:40;;;;;;;16.70;15.10;;;29.10;40.30;;;;;;4991148;28;20533;-68
2022/07/20 09:19:08;;;;;;;15.18;13.88;;;28.80;40.80;;;;;;4992677;28;20418;-68
2022/07/20 09:21:35;;;;;;;15.50;14.10;;;28.70;42.10;;;;;;5005814;28;20441;-68
2022/07/20 09:24:04;;;;;;;15.20;14.00;;;29.00;42.30;;;;;;5012217;28;20425;-69
2022/07/20 09:26:31;;;;;;;15.43;14.13;;;29.30;40.70;;;;;;5009889;28;20795;-69
2022/07/20 09:29:00;;;;;;;14.20;13.10;;;29.60;40.20;;;;;;5010869;28;20412;-70
2022/07/20 09:31:30;;;;;;;14.52;13.43;;;29.80;40.00;;;;;;5010404;28;20417;-70
2022/07/20 09:34:23;;;;;;;14.00;12.80;;;30.20;39.20;;;;;;5010768;28;20896;-69
2022/07/20 09:36:50;;;;;;;13.60;12.50;;;30.60;37.30;;;;;;5011664;28;20420;-69
2022/07/20 09:39:18;;;;;;;13.55;12.55;;;30.60;38.30;;;;;;5011773;28;20419;-69
2022/07/20 09:41:52;;;;;;;12.30;11.10;;;30.70;36.70;;;;;;5010813;28;20416;-69
2022/07/20 09:44:22;;;;;;;13.50;12.20;;;30.60;36.00;;;;;;5012202;28;20433;-70
2022/07/20 09:46:49;;;;;;;12.00;11.00;;;30.60;37.40;;;;;;5011079;28;20431;-69
2022/07/20 09:49:17;;;;;;;11.40;10.40;;;30.90;35.80;;;;;;5010301;28;20532;-69
2022/07/20 09:51:46;;;;;;;10.73;9.82;;;30.90;35.80;;;;;;5009867;28;20421;-70
2022/07/20 09:54:15;;;;;;;10.20;9.40;;;31.00;35.10;;;;;;5010074;28;20476;-70
2022/07/20 09:56:44;;;;;;;10.88;10.07;;;31.00;35.10;;;;;;5009146;28;20599;-70
2022/07/20 09:59:12;;;;;;;11.50;10.50;;;31.20;34.90;;;;;;5009873;28;20432;-70
2022/07/20 10:01:42;;;;;;;12.30;11.20;;;31.20;35.50;;;;;;5009468;28;20509;-70
2022/07/20 10:04:10;;;;;;;12.55;11.45;;;31.40;35.10;;;;;;5010118;28;20432;-70
2022/07/20 10:06:42;;;;;;;12.80;11.70;;;31.30;36.10;;;;;;5009897;28;20423;-69
2022/07/20 10:09:09;;;;;;;12.43;11.25;;;31.40;35.50;;;;;;5010331;28;20479;-70
2022/07/20 10:11:37;;;;;;;12.82;11.82;;;31.50;35.80;;;;;;5008206;28;20432;-69
2022/07/20 10:14:05;;;;;;;12.60;11.40;;;31.70;35.40;;;;;;5009962;28;20531;-69
2022/07/20 10:16:36;;;;;;;12.02;10.93;;;32.00;35.90;;;;;;5009458;28;20436;-69
2022/07/20 10:19:05;;;;;;;11.85;10.75;;;32.20;34.60;;;;;;5009684;28;20439;-69
2022/07/20 10:21:33;;;;;;;12.80;11.50;;;32.20;34.70;;;;;;5008925;28;20491;-69
2022/07/20 10:24:25;;;;;;;12.00;11.00;;;32.20;34.20;;;;;;5009316;28;20428;-69
2022/07/20 10:26:54;;;;;;;11.73;10.82;;;31.80;34.70;;;;;;5008499;28;20911;-69
2022/07/20 10:29:30;;;;;;;12.77;11.60;;;31.60;35.60;;;;;;5009229;28;20754;-70
2022/07/20 10:31:59;;;;;;;12.57;11.50;;;31.80;35.40;;;;;;5008721;28;20430;-69
2022/07/20 10:34:36;;;;;;;12.90;11.80;;;31.70;35.60;;;;;;5009271;28;20417;-71
2022/07/20 10:37:25;;;;;;;11.50;10.70;;;31.30;35.80;;;;;;5009395;28;20469;-71
2022/07/20 10:40:05;;;;;;;12.55;11.45;;;31.30;36.90;;;;;;5008611;28;20781;-69
2022/07/20 10:42:34;;;;;;;12.50;11.50;;;31.50;36.50;;;;;;5009329;28;20513;-69
2022/07/20 10:45:27;;;;;;;12.23;11.23;;;31.70;35.80;;;;;;5008361;28;20910;-69
2022/07/20 10:47:55;;;;;;;12.30;11.40;;;32.10;35.40;;;;;;5009162;28;20444;-69
2022/07/20 10:50:23;;;;;;;12.10;11.20;;;32.00;35.50;;;;;;5008137;28;20456;-69
2022/07/20 10:52:53;;;;;;;11.40;10.43;;;31.90;35.30;;;;;;5009209;28;20421;-70
2022/07/20 10:55:51;;;;;;;12.90;11.80;;;31.80;35.90;;;;;;5007642;28;20420;-69
2022/07/20 10:58:20;;;;;;;12.20;11.10;;;32.00;36.20;;;;;;5009014;28;20516;-69
2022/07/20 11:00:49;;;;;;;12.75;11.52;;;32.20;35.30;;;;;;5008040;28;20535;-69
2022/07/20 11:03:17;;;;;;;12.23;11.23;;;32.20;35.40;;;;;;5008770;28;20515;-69
2022/07/20 11:05:45;;;;;;;11.48;10.57;;;32.50;36.00;;;;;;5008426;28;20451;-68
2022/07/20 11:08:13;;;;;;;11.23;10.20;;;32.60;34.80;;;;;;5008554;28;20432;-69
2022/07/20 11:10:41;;;;;;;11.50;10.50;;;32.80;34.30;;;;;;5007027;28;20428;-68
2022/07/20 11:13:11;;;;;;;11.05;10.02;;;32.90;34.10;;;;;;5008703;28;20421;-69
2022/07/20 11:15:40;;;;;;;12.02;10.82;;;33.10;35.10;;;;;;5007921;28;20427;-68
2022/07/20 11:18:08;;;;;;;12.18;10.15;;;33.40;34.00;;;;;;5008611;28;20412;-68
2022/07/20 11:20:35;;;;;;;10.60;9.80;;;33.70;33.20;;;;;;5007530;28;20771;-68
2022/07/20 11:23:03;;;;;;;11.18;10.27;;;33.80;33.10;;;;;;5008195;28;20851;-68
2022/07/20 11:25:45;;;;;;;10.45;9.40;;;34.00;31.60;;;;;;5007197;28;20786;-68
2022/07/20 11:28:13;;;;;;;10.23;9.38;;;34.00;31.00;;;;;;5007992;28;20509;-68
2022/07/20 11:30:42;;;;;;;10.00;9.20;;;33.90;31.20;;;;;;5007392;28;20420;-68
2022/07/20 11:33:09;;;;;;;9.20;8.40;;;33.60;31.90;;;;;;5008351;28;20484;-69
2022/07/20 11:35:36;;;;;;;8.67;7.87;;;33.50;31.00;;;;;;5007540;28;20412;-68
2022/07/20 11:38:03;;;;;;;8.90;8.20;;;33.50;32.00;;;;;;5008124;28;20763;-68
2022/07/20 11:40:30;;;;;;;9.07;8.27;;;33.30;31.00;;;;;;5006748;28;20412;-68
2022/07/20 11:43:06;;;;;;;8.98;7.93;;;33.20;31.30;;;;;;5008142;28;20799;-69
2022/07/20 11:45:35;;;;;;;9.55;8.50;;;32.70;31.90;;;;;;5007651;28;20487;-68
2022/07/20 11:48:03;;;;;;;8.90;8.00;;;32.40;32.40;;;;;;5007779;28;20424;-69
2022/07/20 11:50:32;;;;;;;9.10;8.30;;;32.20;33.10;;;;;;5007213;28;20432;-69
2022/07/20 11:53:00;;;;;;;8.30;7.60;;;32.00;33.20;;;;;;5008218;28;20514;-69
2022/07/20 11:55:35;;;;;;;9.40;8.48;;;32.00;33.00;;;;;;5006805;28;20421;-69
2022/07/20 11:58:02;;;;;;;9.13;8.30;;;32.00;33.20;;;;;;5007773;28;20427;-69
2022/07/20 12:00:30;;;;;;;8.85;8.15;;;32.20;33.60;;;;;;5007362;28;20486;-69
2022/07/20 12:02:59;;;;;;;8.20;7.50;;;32.30;32.80;;;;;;5008919;28;20443;-69
2022/07/20 12:05:26;;;;;;;8.05;7.13;;;32.30;32.20;;;;;;5007961;28;20437;-69
2022/07/20 12:08:11;;;;;;;8.43;7.00;;;32.30;32.60;;;;;;5008306;28;20423;-69
2022/07/20 12:10:38;;;;;;;7.18;6.45;;;32.60;32.10;;;;;;5006585;28;20416;-69
2022/07/20 12:13:07;;;;;;;7.70;6.90;;;33.10;31.70;;;;;;5008065;28;20530;-69
2022/07/20 12:15:34;;;;;;;6.45;5.85;;;33.60;30.60;;;;;;5007326;28;20909;-69
2022/07/20 12:18:02;;;;;;;7.30;5.90;;;33.90;30.00;;;;;;5008147;28;20431;-69
2022/07/20 12:20:29;;;;;;;6.18;5.68;;;34.00;29.50;;;;;;5006961;28;20427;-69
2022/07/20 12:22:58;;;;;;;5.90;5.30;;;34.00;29.00;;;;;;5007838;28;20432;-70
2022/07/20 12:25:36;;;;;;;6.05;5.45;;;34.10;28.70;;;;;;5006859;28;20894;-69
2022/07/20 12:28:03;;;;;;;5.95;5.35;;;34.00;29.40;;;;;;5007408;28;20427;-70
2022/07/20 12:30:34;;;;;;;6.22;5.50;;;34.10;29.30;;;;;;5006909;28;20899;-69
2022/07/20 12:33:10;;;;;;;5.80;5.30;;;34.40;29.20;;;;;;5007995;28;20428;-70
2022/07/20 12:35:38;;;;;;;5.50;5.10;;;34.30;28.40;;;;;;5007296;28;20424;-68
2022/07/20 12:38:05;;;;;;;5.55;4.70;;;34.10;28.80;;;;;;5007553;28;20419;-69
2022/07/20 12:40:36;;;;;;;5.30;4.90;;;34.30;29.00;;;;;;5006420;28;20428;-68
2022/07/20 12:43:04;;;;;;;5.60;5.10;;;34.30;29.10;;;;;;5009718;28;20804;-69
2022/07/20 12:45:31;;;;;;;6.20;5.60;;;34.40;28.50;;;;;;5010951;28;20779;-70